Time;durP1;ratioP1;P1;durP2;ratioP2;P2;SDS_P1;SDS_P2;PMS_P1;PMS_P2;Temp;Humidity;BMP_temperature;BMP_pressure;BME280_temperature;BME280_humidity;BME280_pressure;Samples;Min_cycle;Max_cycle;Signal;HPM_P1;HPM_P2
2021/01/01 00:01:35;;;;;;;40.85;22.02;;;;;;;4.44;100.00;99851.56;5036422;28;20044;-73
2021/01/01 00:04:01;;;;;;;37.58;21.20;;;;;;;4.40;100.00;99855.22;5041968;28;20053;-73
2021/01/01 00:06:27;;;;;;;33.60;18.92;;;;;;;4.52;100.00;99857.88;5055963;28;20033;-73
2021/01/01 00:08:53;;;;;;;31.08;17.25;;;;;;;4.48;100.00;99851.66;5035897;28;20072;-73
2021/01/01 00:11:18;;;;;;;31.25;18.17;;;;;;;4.27;100.00;99845.66;5037309;28;20065;-73
2021/01/01 00:13:44;;;;;;;35.55;18.85;;;;;;;4.25;100.00;99853.22;5030290;28;20032;-73
2021/01/01 00:16:13;;;;;;;32.60;17.73;;;;;;;4.36;100.00;99849.00;5024076;28;20110;-72
2021/01/01 00:18:40;;;;;;;27.95;16.50;;;;;;;4.38;100.00;99852.09;5048386;28;20120;-73
2021/01/01 00:21:06;;;;;;;30.40;16.10;;;;;;;4.41;100.00;99857.53;5044330;28;20044;-73
2021/01/01 00:23:32;;;;;;;27.85;15.75;;;;;;;4.31;100.00;99859.88;5038811;28;20021;-73
2021/01/01 00:25:57;;;;;;;29.08;16.20;;;;;;;4.26;100.00;99849.44;5054835;28;20028;-73
2021/01/01 00:28:23;;;;;;;27.52;15.98;;;;;;;4.25;100.00;99861.22;5044335;28;20072;-73
2021/01/01 00:30:49;;;;;;;32.13;16.23;;;;;;;4.36;100.00;99859.66;5048387;28;20111;-72
2021/01/01 00:33:14;;;;;;;31.35;16.25;;;;;;;4.53;100.00;99860.22;5028483;28;20029;-73
2021/01/01 00:35:40;;;;;;;28.80;15.85;;;;;;;4.45;100.00;99857.66;5048333;28;20139;-73
2021/01/01 00:38:06;;;;;;;31.90;17.45;;;;;;;4.38;100.00;99854.75;5050846;28;20020;-73
2021/01/01 00:40:31;;;;;;;29.05;17.38;;;;;;;4.30;100.00;99860.97;5049619;28;20039;-73
2021/01/01 00:42:57;;;;;;;31.15;17.65;;;;;;;4.34;100.00;99861.88;5034926;28;20044;-73
2021/01/01 00:45:22;;;;;;;33.42;17.45;;;;;;;4.47;100.00;99860.78;5048830;28;20475;-73
2021/01/01 00:47:48;;;;;;;34.83;17.80;;;;;;;4.50;100.00;99863.56;5032183;28;20125;-73
2021/01/01 00:50:14;;;;;;;34.58;19.50;;;;;;;4.17;100.00;99852.22;5046301;28;20036;-73
2021/01/01 00:52:40;;;;;;;36.78;19.15;;;;;;;4.21;100.00;99865.63;5053467;28;20037;-72
2021/01/01 00:55:07;;;;;;;38.10;20.58;;;;;;;4.28;100.00;99857.88;5054377;28;20037;-73
2021/01/01 00:57:32;;;;;;;36.58;20.90;;;;;;;4.28;100.00;99863.19;5050166;28;20033;-73
2021/01/01 00:59:58;;;;;;;37.47;20.55;;;;;;;4.29;100.00;99856.78;5039960;28;20542;-73
2021/01/01 01:02:24;;;;;;;37.67;20.80;;;;;;;4.22;100.00;99869.88;5052421;28;20089;-73
2021/01/01 01:04:50;;;;;;;38.38;20.40;;;;;;;4.26;100.00;99865.41;5036284;28;20402;-73
2021/01/01 01:07:15;;;;;;;39.65;21.20;;;;;;;4.27;100.00;99854.44;5019674;28;20082;-73
2021/01/01 01:09:42;;;;;;;41.33;20.50;;;;;;;4.20;100.00;99858.78;5038407;28;20109;-73
2021/01/01 01:12:07;;;;;;;43.15;22.52;;;;;;;4.22;100.00;99851.97;5056215;28;20525;-73
2021/01/01 01:14:33;;;;;;;45.70;22.25;;;;;;;4.17;100.00;99860.19;5042783;28;20071;-73
2021/01/01 01:16:58;;;;;;;43.97;22.88;;;;;;;4.30;100.00;99853.75;5057033;28;20028;-73
2021/01/01 01:19:23;;;;;;;42.20;22.48;;;;;;;4.27;100.00;99859.00;5051863;28;20446;-73
2021/01/01 01:21:49;;;;;;;44.28;23.15;;;;;;;4.40;100.00;99855.22;5045018;28;20025;-73
2021/01/01 01:24:15;;;;;;;41.55;21.88;;;;;;;4.35;100.00;99856.22;5032444;28;20147;-73
2021/01/01 01:26:40;;;;;;;44.28;22.27;;;;;;;4.42;100.00;99858.31;5026274;28;20128;-73
2021/01/01 01:29:06;;;;;;;41.78;22.92;;;;;;;4.38;100.00;99858.22;5045776;28;20032;-73
2021/01/01 01:31:31;;;;;;;42.63;21.80;;;;;;;4.53;100.00;99857.53;5022244;28;20071;-73
2021/01/01 01:33:57;;;;;;;40.58;20.98;;;;;;;4.29;100.00;99862.88;5051807;28;20039;-73
2021/01/01 01:36:22;;;;;;;40.30;21.17;;;;;;;4.44;100.00;99866.75;5050327;28;20083;-74
2021/01/01 01:38:48;;;;;;;40.70;21.23;;;;;;;4.42;100.00;99864.44;5040957;28;20108;-73
2021/01/01 01:41:14;;;;;;;40.70;21.38;;;;;;;4.38;100.00;99857.44;5049289;28;20075;-74
2021/01/01 01:43:39;;;;;;;41.15;21.90;;;;;;;4.08;100.00;99859.53;5044647;28;20017;-74
2021/01/01 01:46:05;;;;;;;43.10;21.10;;;;;;;4.15;100.00;99859.75;5044091;28;20546;-74
2021/01/01 01:48:33;;;;;;;39.95;21.77;;;;;;;4.33;100.00;99863.78;5043529;28;20041;-74
2021/01/01 01:50:59;;;;;;;40.70;20.52;;;;;;;4.31;100.00;99854.56;5063657;28;20028;-74
2021/01/01 01:53:29;;;;;;;39.58;20.75;;;;;;;4.35;100.00;99858.09;5066472;28;20068;-74
2021/01/01 01:55:55;;;;;;;38.03;20.60;;;;;;;4.38;100.00;99860.09;5058568;28;20032;-73
2021/01/01 01:58:22;;;;;;;37.90;19.60;;;;;;;4.37;100.00;99866.56;5038138;28;20032;-74
2021/01/01 02:00:57;;;;;;;36.05;18.83;;;;;;;4.40;100.00;99857.88;5041378;28;20037;-74
2021/01/01 02:03:31;;;;;;;34.47;17.92;;;;;;;4.31;100.00;99865.22;5039273;28;20044;-74
2021/01/01 02:05:58;;;;;;;32.50;18.08;;;;;;;4.12;100.00;99862.31;5044952;28;20374;-74
2021/01/01 02:08:25;;;;;;;34.05;17.52;;;;;;;4.39;100.00;99865.09;5045529;28;20082;-74
2021/01/01 02:10:55;;;;;;;36.40;18.88;;;;;;;4.31;100.00;99871.31;5046699;28;20038;-74
2021/01/01 02:13:23;;;;;;;37.10;18.52;;;;;;;4.26;100.00;99870.75;5028769;28;20545;-74
2021/01/01 02:15:49;;;;;;;35.70;17.73;;;;;;;4.11;100.00;99874.06;5051135;28;20116;-73
2021/01/01 02:18:38;;;;;;;35.47;18.20;;;;;;;4.23;100.00;99877.53;5048136;28;20033;-74
2021/01/01 02:21:04;;;;;;;30.42;16.73;;;;;;;4.01;100.00;99879.81;5060172;28;20039;-74
2021/01/01 02:23:30;;;;;;;35.45;18.60;;;;;;;4.03;100.00;99877.59;5044336;28;20054;-74
2021/01/01 02:25:56;;;;;;;34.40;18.63;;;;;;;4.05;100.00;99872.72;5038937;28;20366;-74
2021/01/01 02:28:22;;;;;;;30.75;16.50;;;;;;;4.21;100.00;99878.97;5049036;28;20123;-74
2021/01/01 02:30:47;;;;;;;32.92;17.10;;;;;;;4.36;100.00;99880.97;5045958;28;20104;-74
2021/01/01 02:33:13;;;;;;;29.77;16.27;;;;;;;4.31;100.00;99878.53;5050823;28;20063;-74
2021/01/01 02:35:39;;;;;;;37.08;17.17;;;;;;;4.25;100.00;99879.84;5047374;28;20135;-75
2021/01/01 02:38:04;;;;;;;37.45;18.33;;;;;;;4.17;100.00;99878.84;5032143;28;20024;-74
2021/01/01 02:40:30;;;;;;;39.85;18.90;;;;;;;4.24;100.00;99888.97;5044675;28;20082;-75
2021/01/01 02:42:55;;;;;;;34.33;16.55;;;;;;;4.42;100.00;99888.44;5050419;28;20029;-74
2021/01/01 02:45:21;;;;;;;32.35;15.48;;;;;;;4.51;100.00;99885.63;5051568;28;20040;-74
2021/01/01 02:47:46;;;;;;;32.03;16.27;;;;;;;4.32;100.00;99886.19;5049112;28;20583;-75
2021/01/01 02:50:12;;;;;;;30.55;15.60;;;;;;;4.55;100.00;99891.84;5044998;28;20025;-75
2021/01/01 02:52:38;;;;;;;30.42;15.50;;;;;;;4.42;100.00;99882.31;5051578;28;20516;-74
2021/01/01 02:55:05;;;;;;;28.92;15.93;;;;;;;4.42;100.00;99880.44;5064499;28;20107;-75
2021/01/01 02:57:30;;;;;;;27.02;14.38;;;;;;;4.43;100.00;99886.53;5051931;28;20036;-74
2021/01/01 02:59:55;;;;;;;30.30;16.00;;;;;;;4.31;100.00;99883.88;5059692;28;20097;-74
2021/01/01 03:02:21;;;;;;;29.40;14.45;;;;;;;4.30;100.00;99883.06;5061245;28;20061;-72
2021/01/01 03:04:46;;;;;;;28.85;14.77;;;;;;;4.06;100.00;99875.06;5021294;28;20041;-73
2021/01/01 03:07:12;;;;;;;29.83;15.27;;;;;;;4.15;100.00;99885.59;5049369;28;20021;-72
2021/01/01 03:09:37;;;;;;;28.92;14.68;;;;;;;4.18;100.00;99880.38;5031148;28;20041;-72
2021/01/01 03:12:03;;;;;;;30.25;14.63;;;;;;;4.23;100.00;99877.53;5049851;28;20039;-73
2021/01/01 03:14:28;;;;;;;28.10;15.40;;;;;;;3.98;100.00;99881.25;5051012;28;20041;-72
2021/01/01 03:16:54;;;;;;;29.08;14.85;;;;;;;4.11;100.00;99880.16;5047641;28;20038;-72
2021/01/01 03:19:19;;;;;;;32.65;15.68;;;;;;;4.27;100.00;99882.97;5050177;28;20108;-72
2021/01/01 03:21:45;;;;;;;30.70;15.13;;;;;;;4.27;100.00;99883.75;5048559;28;20074;-72
2021/01/01 03:24:10;;;;;;;29.92;15.43;;;;;;;4.42;100.00;99884.97;5049833;28;20035;-72
2021/01/01 03:26:36;;;;;;;28.65;14.85;;;;;;;4.37;100.00;99887.88;5049667;28;20040;-72
2021/01/01 03:29:01;;;;;;;28.40;14.98;;;;;;;4.17;100.00;99878.06;5051354;28;20017;-72
2021/01/01 03:31:27;;;;;;;33.13;15.27;;;;;;;4.30;100.00;99880.41;5049689;28;20045;-72
2021/01/01 03:33:52;;;;;;;31.30;14.50;;;;;;;4.27;100.00;99882.97;5048956;28;20068;-72
2021/01/01 03:36:18;;;;;;;29.27;15.07;;;;;;;4.52;100.00;99884.53;5036745;28;20017;-72
2021/01/01 03:38:46;;;;;;;31.98;14.85;;;;;;;4.26;100.00;99878.72;5041703;28;20396;-72
2021/01/01 03:41:13;;;;;;;30.42;14.77;;;;;;;4.31;100.00;99874.00;5048557;28;20055;-71
2021/01/01 03:43:38;;;;;;;29.63;14.27;;;;;;;4.45;100.00;99879.75;5044974;28;20037;-72
2021/01/01 03:46:03;;;;;;;29.05;14.88;;;;;;;4.51;100.00;99873.09;5049353;28;20033;-71
2021/01/01 03:48:29;;;;;;;31.48;15.73;;;;;;;4.57;100.00;99873.63;5055777;28;20108;-72
2021/01/01 03:50:54;;;;;;;30.35;15.65;;;;;;;4.72;100.00;99874.88;5046853;28;20024;-72
2021/01/01 03:53:20;;;;;;;32.55;15.38;;;;;;;4.54;100.00;99883.09;5050714;28;20111;-73
2021/01/01 03:55:46;;;;;;;29.27;15.10;;;;;;;4.44;100.00;99877.44;5048041;28;20470;-73
2021/01/01 03:58:11;;;;;;;32.35;15.35;;;;;;;4.43;100.00;99881.22;5049392;28;20088;-72
2021/01/01 04:00:37;;;;;;;33.78;16.58;;;;;;;4.28;100.00;99874.63;5055516;28;20072;-72
2021/01/01 04:03:02;;;;;;;30.92;14.95;;;;;;;4.35;100.00;99874.09;5050507;28;20488;-73
2021/01/01 04:05:28;;;;;;;32.90;15.57;;;;;;;4.32;100.00;99880.84;5049139;28;20025;-72
2021/01/01 04:07:53;;;;;;;28.63;15.50;;;;;;;4.43;100.00;99881.97;5038761;28;20033;-72
2021/01/01 04:10:19;;;;;;;29.60;15.25;;;;;;;4.32;100.00;99877.41;5048273;28;20500;-72
2021/01/01 04:12:44;;;;;;;30.33;14.80;;;;;;;4.37;100.00;99870.00;5053188;28;20033;-73
2021/01/01 04:15:10;;;;;;;31.85;15.48;;;;;;;4.47;100.00;99882.88;5029716;28;20047;-73
2021/01/01 04:17:36;;;;;;;30.77;15.35;;;;;;;4.41;100.00;99878.84;5049208;28;20040;-73
2021/01/01 04:20:04;;;;;;;29.38;15.75;;;;;;;4.44;100.00;99886.19;5049896;28;20230;-72
2021/01/01 04:22:29;;;;;;;32.80;16.45;;;;;;;4.26;100.00;99876.84;5052336;28;20116;-72
2021/01/01 04:24:55;;;;;;;28.27;15.32;;;;;;;4.24;100.00;99873.00;5049174;28;20124;-72
2021/01/01 04:27:20;;;;;;;31.05;15.02;;;;;;;4.42;100.00;99879.66;5049858;28;20082;-72
2021/01/01 04:29:46;;;;;;;32.03;15.65;;;;;;;4.34;100.00;99886.63;5047715;28;20386;-72
2021/01/01 04:32:11;;;;;;;35.42;16.65;;;;;;;4.32;100.00;99888.06;5046271;28;20521;-72
2021/01/01 04:34:37;;;;;;;30.52;16.00;;;;;;;4.13;100.00;99875.28;5047744;28;20041;-72
2021/01/01 04:37:02;;;;;;;34.08;16.30;;;;;;;4.31;100.00;99875.88;5041074;28;20030;-73
2021/01/01 04:39:27;;;;;;;32.22;16.42;;;;;;;4.18;100.00;99880.38;5049533;28;20102;-72
2021/01/01 04:41:54;;;;;;;31.45;15.27;;;;;;;4.25;100.00;99880.63;5029999;28;20068;-73
2021/01/01 04:44:22;;;;;;;36.92;16.70;;;;;;;4.22;100.00;99886.63;5057183;28;20028;-72
2021/01/01 04:46:49;;;;;;;30.10;16.17;;;;;;;4.20;100.00;99883.50;5038841;28;20111;-73
2021/01/01 04:49:14;;;;;;;34.17;16.42;;;;;;;4.13;100.00;99885.94;5031866;28;20500;-72
2021/01/01 04:51:40;;;;;;;34.88;16.52;;;;;;;4.11;100.00;99887.38;5043017;28;20057;-73
2021/01/01 04:54:09;;;;;;;33.22;17.15;;;;;;;4.24;100.00;99878.31;5052813;28;20040;-72
2021/01/01 04:56:49;;;;;;;36.05;15.75;;;;;;;4.47;100.00;99890.09;5051843;28;20143;-73
2021/01/01 04:59:17;;;;;;;35.55;16.77;;;;;;;4.28;100.00;99884.50;5052227;28;20048;-73
2021/01/01 05:01:44;;;;;;;31.73;16.15;;;;;;;4.21;100.00;99886.94;5058061;28;20036;-72
2021/01/01 05:04:10;;;;;;;33.92;17.65;;;;;;;4.29;100.00;99886.88;5054240;28;20397;-73
2021/01/01 05:06:36;;;;;;;30.67;16.48;;;;;;;4.18;100.00;99884.97;5047443;28;20037;-73
2021/01/01 05:09:05;;;;;;;36.58;16.45;;;;;;;4.21;100.00;99885.06;5051651;28;20036;-72
2021/01/01 05:11:31;;;;;;;35.60;16.95;;;;;;;4.26;100.00;99881.41;5057285;28;20529;-72
2021/01/01 05:14:00;;;;;;;35.88;17.45;;;;;;;4.48;100.00;99891.66;5043087;28;20135;-73
2021/01/01 05:16:27;;;;;;;35.00;16.77;;;;;;;4.48;100.00;99894.31;5049887;28;20037;-72
2021/01/01 05:18:53;;;;;;;35.58;16.92;;;;;;;4.40;100.00;99893.31;5040066;28;20074;-72
2021/01/01 05:21:26;;;;;;;34.35;16.60;;;;;;;4.39;100.00;99891.72;5051172;28;20487;-72
2021/01/01 05:23:55;;;;;;;33.50;16.25;;;;;;;4.44;100.00;99893.41;5051303;28;20025;-72
2021/01/01 05:26:26;;;;;;;34.72;16.67;;;;;;;4.57;100.00;99892.31;5043985;28;20413;-72
2021/01/01 05:29:05;;;;;;;35.47;16.70;;;;;;;4.47;100.00;99898.84;5054944;28;20033;-73
2021/01/01 05:31:33;;;;;;;36.20;17.23;;;;;;;4.34;100.00;99893.84;5049528;28;20564;-72
2021/01/01 05:34:04;;;;;;;36.08;17.13;;;;;;;4.24;100.00;99889.72;5053670;28;20048;-72
2021/01/01 05:36:38;;;;;;;;;;;;;;;4.41;100.00;99894.09;5040726;28;20033;-72
2021/01/01 05:39:06;;;;;;;34.33;16.27;;;;;;;4.27;100.00;99894.41;5057575;28;19919;-72
2021/01/01 05:41:36;;;;;;;36.08;17.13;;;;;;;4.24;100.00;99894.31;5049533;28;20037;-72
2021/01/01 05:44:24;;;;;;;36.08;16.55;;;;;;;4.49;100.00;99898.53;5044004;28;20029;-72
2021/01/01 05:46:58;;;;;;;35.67;16.27;;;;;;;4.31;100.00;99889.19;5048002;28;20716;-72
2021/01/01 05:49:31;;;;;;;35.20;17.38;;;;;;;4.19;100.00;99891.84;5046837;28;20087;-73
2021/01/01 05:52:10;;;;;;;34.58;17.55;;;;;;;4.23;100.00;99903.38;5049228;28;20051;-73
2021/01/01 05:54:37;;;;;;;40.33;17.98;;;;;;;4.20;100.00;99898.72;5063248;28;20161;-72
2021/01/01 05:57:04;;;;;;;36.35;16.48;;;;;;;4.31;100.00;99908.63;5047888;28;20028;-73
2021/01/01 05:59:34;;;;;;;33.80;17.27;;;;;;;4.24;100.00;99910.28;5049278;28;20029;-73
2021/01/01 06:02:02;;;;;;;39.25;16.88;;;;;;;4.22;100.00;99904.50;5008621;28;20029;-73
2021/01/01 06:04:27;;;;;;;33.60;16.40;;;;;;;4.41;100.00;99915.41;5028489;28;20724;-73
2021/01/01 06:06:54;;;;;;;35.03;17.63;;;;;;;4.34;100.00;99912.50;5016115;28;20033;-72
2021/01/01 06:09:22;;;;;;;39.67;18.60;;;;;;;4.43;100.00;99918.53;5045303;28;20489;-72
2021/01/01 06:12:08;;;;;;;38.38;18.25;;;;;;;4.42;100.00;99912.41;5051441;28;20045;-73
2021/01/01 06:14:38;;;;;;;43.67;18.55;;;;;;;4.46;100.00;99923.19;5049873;28;20037;-72
2021/01/01 06:17:09;;;;;;;44.30;18.60;;;;;;;4.50;100.00;99922.19;5045063;28;20024;-73
2021/01/01 06:19:44;;;;;;;;;;;;;;;4.43;100.00;99929.19;5036898;28;20033;-72
2021/01/01 06:22:21;;;;;;;41.03;18.27;;;;;;;4.30;100.00;99932.91;5051553;28;20003;-72
2021/01/01 06:24:57;;;;;;;48.22;20.23;;;;;;;4.34;100.00;99934.59;5038447;28;20104;-73
2021/01/01 06:27:25;;;;;;;52.83;21.23;;;;;;;4.39;100.00;99929.03;5051145;28;20040;-72
2021/01/01 06:30:03;;;;;;;51.97;22.55;;;;;;;4.46;100.00;99933.84;5039343;28;20409;-72
2021/01/01 06:32:32;;;;;;;56.33;20.55;;;;;;;4.58;100.00;99941.84;5043045;28;20037;-73
2021/01/01 06:35:13;;;;;;;51.90;21.63;;;;;;;4.56;100.00;99942.19;5052413;28;20029;-73
2021/01/01 06:37:46;;;;;;;56.63;22.20;;;;;;;4.46;100.00;99939.97;5050183;28;20040;-72
2021/01/01 06:40:20;;;;;;;59.15;23.23;;;;;;;4.56;100.00;99944.88;5048945;28;20032;-73
2021/01/01 06:43:00;;;;;;;57.38;23.15;;;;;;;4.41;100.00;99952.72;5049353;28;20029;-72
2021/01/01 06:45:43;;;;;;;61.42;24.90;;;;;;;4.45;100.00;99950.97;5052104;28;20047;-72
2021/01/01 06:48:09;;;;;;;65.07;25.52;;;;;;;4.43;100.00;99964.59;5051574;28;20056;-73
2021/01/01 06:50:38;;;;;;;62.22;25.52;;;;;;;4.49;100.00;99959.84;5051463;28;20036;-73
2021/01/01 06:53:08;;;;;;;71.88;27.13;;;;;;;4.43;100.00;99967.25;5039783;28;20041;-72
2021/01/01 06:55:42;;;;;;;65.53;28.47;;;;;;;4.47;100.00;99959.41;5049768;28;20040;-73
2021/01/01 06:58:09;;;;;;;71.95;26.98;;;;;;;4.48;100.00;99979.59;5055535;28;20282;-73
2021/01/01 07:00:49;;;;;;;64.07;26.20;;;;;;;4.56;100.00;99976.06;5042316;28;20033;-73
2021/01/01 07:03:31;;;;;;;64.57;27.35;;;;;;;4.41;100.00;99977.47;5051974;28;20033;-72
2021/01/01 07:06:16;;;;;;;58.10;22.60;;;;;;;4.59;100.00;99975.38;5044445;28;20440;-73
2021/01/01 07:08:42;;;;;;;56.65;23.83;;;;;;;4.48;100.00;99976.94;5053606;28;20039;-73
2021/01/01 07:11:07;;;;;;;61.63;26.00;;;;;;;4.40;100.00;99978.59;5048247;28;20452;-73
2021/01/01 07:14:01;;;;;;;70.78;25.88;;;;;;;4.48;100.00;99980.38;5046080;28;20150;-73
2021/01/01 07:16:34;;;;;;;64.53;24.77;;;;;;;4.40;100.00;99975.91;5057478;28;20049;-73
2021/01/01 07:19:00;;;;;;;67.65;26.80;;;;;;;4.39;100.00;99979.69;5049072;28;20087;-73
2021/01/01 07:21:26;;;;;;;70.65;27.17;;;;;;;4.51;100.00;99978.94;5052813;28;20060;-73
2021/01/01 07:23:51;;;;;;;63.50;26.35;;;;;;;4.38;100.00;99980.00;5047827;28;20400;-72
2021/01/01 07:26:17;;;;;;;71.03;26.92;;;;;;;4.42;100.00;99980.91;5039391;28;20020;-72
2021/01/01 07:28:45;;;;;;;67.20;26.45;;;;;;;4.35;100.00;99983.34;5051443;28;20033;-72
2021/01/01 07:31:16;;;;;;;63.03;26.17;;;;;;;4.45;100.00;99985.59;5031480;28;20060;-72
2021/01/01 07:33:42;;;;;;;59.95;25.38;;;;;;;4.36;100.00;99995.56;5048009;28;20029;-73
2021/01/01 07:36:10;;;;;;;68.68;27.60;;;;;;;4.28;100.00;99985.75;5053155;28;20029;-73
2021/01/01 07:38:40;;;;;;;68.63;27.08;;;;;;;4.16;100.00;99996.41;5020229;28;20904;-73
2021/01/01 07:41:06;;;;;;;65.20;25.75;;;;;;;4.25;100.00;100002.41;5038600;28;20500;-72
2021/01/01 07:43:53;;;;;;;64.20;24.85;;;;;;;4.27;100.00;99992.22;5042611;28;20043;-73
2021/01/01 07:46:18;;;;;;;66.53;27.10;;;;;;;4.19;100.00;100003.72;5063253;28;20051;-73
2021/01/01 07:48:52;;;;;;;57.40;24.95;;;;;;;4.21;100.00;100007.63;5046753;28;20036;-72
2021/01/01 07:51:19;;;;;;;66.55;25.70;;;;;;;4.45;100.00;100010.34;5050032;28;20046;-73
2021/01/01 07:53:44;;;;;;;68.25;27.65;;;;;;;4.45;100.00;100004.25;5048953;28;20044;-73
2021/01/01 07:56:10;;;;;;;63.88;26.92;;;;;;;4.41;100.00;100006.03;5056456;28;20154;-72
2021/01/01 07:58:37;;;;;;;64.53;26.67;;;;;;;4.41;100.00;100009.44;5061947;28;20052;-73
2021/01/01 08:01:09;;;;;;;64.70;26.70;;;;;;;4.30;100.00;100004.88;5050989;28;20090;-72
2021/01/01 08:03:37;;;;;;;62.17;24.98;;;;;;;4.34;100.00;100013.75;5031491;28;20500;-73
2021/01/01 08:06:03;;;;;;;61.92;24.80;;;;;;;4.45;100.00;100013.00;5048437;28;20033;-72
2021/01/01 08:08:29;;;;;;;57.95;24.30;;;;;;;4.35;100.00;100013.44;5056040;28;20044;-73
2021/01/01 08:10:56;;;;;;;58.25;24.70;;;;;;;4.46;100.00;100019.13;5034728;28;20045;-72
2021/01/01 08:13:38;;;;;;;63.95;23.98;;;;;;;4.31;100.00;100022.41;5065039;28;20111;-72
2021/01/01 08:16:11;;;;;;;;;;;;;;;4.34;100.00;100029.75;5049489;28;20691;-72
2021/01/01 08:18:36;;;;;;;55.47;22.52;;;;;;;4.34;100.00;100035.88;5055987;28;19912;-72
2021/01/01 08:21:04;;;;;;;57.72;23.25;;;;;;;4.30;100.00;100034.97;5056756;28;20043;-72
2021/01/01 08:23:56;;;;;;;56.53;23.67;;;;;;;4.29;100.00;100035.28;5049441;28;20079;-72
2021/01/01 08:26:21;;;;;;;;;;;;;;;4.30;100.00;100042.16;5050262;28;20741;-72
2021/01/01 08:28:50;;;;;;;52.95;21.70;;;;;;;4.27;100.00;100037.50;5041341;28;19984;-73
2021/01/01 08:31:20;;;;;;;63.03;25.42;;;;;;;4.35;100.00;100049.97;5056151;28;20591;-72
2021/01/01 08:33:50;;;;;;;58.65;24.98;;;;;;;4.54;100.00;100042.25;5037573;28;20055;-72
2021/01/01 08:36:16;;;;;;;61.15;25.05;;;;;;;4.35;100.00;100045.44;5036505;28;20063;-72
2021/01/01 08:38:47;;;;;;;53.13;23.83;;;;;;;4.37;100.00;100045.88;5050052;28;20064;-72
2021/01/01 08:41:17;;;;;;;59.65;25.63;;;;;;;4.37;100.00;100048.53;5034481;28;20546;-72
2021/01/01 08:43:43;;;;;;;53.40;23.70;;;;;;;4.38;100.00;100051.97;5040885;28;20485;-73
2021/01/01 08:46:16;;;;;;;56.75;24.42;;;;;;;4.32;100.00;100050.63;5047897;28;20041;-73
2021/01/01 08:48:42;;;;;;;55.42;23.67;;;;;;;4.36;100.00;100057.63;5044103;28;20131;-73
2021/01/01 08:51:07;;;;;;;61.15;24.58;;;;;;;4.50;100.00;100054.69;5040320;28;20124;-73
2021/01/01 08:53:38;;;;;;;61.03;25.20;;;;;;;4.71;100.00;100054.63;5040170;28;20025;-73
2021/01/01 08:56:04;;;;;;;64.13;25.30;;;;;;;4.65;100.00;100064.72;5048308;28;20116;-73
2021/01/01 08:58:29;;;;;;;64.07;25.15;;;;;;;4.59;100.00;100058.03;5043196;28;20116;-73
2021/01/01 09:00:55;;;;;;;59.03;23.48;;;;;;;4.61;100.00;100065.72;5032726;28;20034;-73
2021/01/01 09:03:22;;;;;;;53.60;22.63;;;;;;;4.66;100.00;100058.28;5040383;28;20036;-73
2021/01/01 09:05:57;;;;;;;51.75;22.92;;;;;;;4.64;100.00;100057.06;5047646;28;20082;-73
2021/01/01 09:08:26;;;;;;;54.65;23.23;;;;;;;4.73;100.00;100058.50;5032385;28;20036;-73
2021/01/01 09:10:53;;;;;;;58.08;24.42;;;;;;;4.63;100.00;100064.25;5021212;28;20036;-73
2021/01/01 09:13:20;;;;;;;57.17;23.45;;;;;;;4.57;100.00;100062.91;5007184;28;20445;-73
2021/01/01 09:15:47;;;;;;;56.50;23.05;;;;;;;4.84;100.00;100075.66;5023151;28;20071;-74
2021/01/01 09:18:13;;;;;;;51.05;21.65;;;;;;;4.81;100.00;100073.66;5056996;28;20393;-73
2021/01/01 09:20:42;;;;;;;52.95;22.50;;;;;;;4.67;100.00;100075.84;5037441;28;20112;-73
2021/01/01 09:23:09;;;;;;;53.22;22.60;;;;;;;4.67;100.00;100073.16;5051088;28;20090;-73
2021/01/01 09:25:35;;;;;;;48.10;21.05;;;;;;;4.68;100.00;100080.06;5043874;28;20490;-74
2021/01/01 09:28:01;;;;;;;52.08;21.67;;;;;;;4.75;100.00;100087.50;5038979;28;20064;-74
2021/01/01 09:30:29;;;;;;;52.85;22.73;;;;;;;4.68;100.00;100085.41;5048476;28;20525;-74
2021/01/01 09:32:57;;;;;;;53.22;23.17;;;;;;;4.49;100.00;100083.22;5045587;28;20101;-74
2021/01/01 09:35:23;;;;;;;48.58;22.52;;;;;;;4.57;100.00;100078.91;5031415;28;20037;-74
2021/01/01 09:37:51;;;;;;;47.63;21.25;;;;;;;4.58;100.00;100070.59;5029827;28;20037;-74
2021/01/01 09:40:18;;;;;;;47.80;21.38;;;;;;;4.86;100.00;100072.66;5048794;28;20037;-74
2021/01/01 09:42:44;;;;;;;47.72;21.20;;;;;;;4.74;100.00;100078.75;5047523;28;20044;-73
2021/01/01 09:45:10;;;;;;;49.60;21.35;;;;;;;4.48;100.00;100081.66;5041501;28;20038;-74
2021/01/01 09:47:36;;;;;;;47.60;20.08;;;;;;;4.71;100.00;100084.72;5044151;28;20037;-74
2021/01/01 09:50:03;;;;;;;46.67;19.33;;;;;;;4.66;100.00;100086.84;5059276;28;20041;-74
2021/01/01 09:52:28;;;;;;;50.10;21.30;;;;;;;4.63;100.00;100090.94;5050555;28;20043;-74
2021/01/01 09:54:54;;;;;;;46.05;20.27;;;;;;;4.69;100.00;100096.81;5050254;28;20037;-74
2021/01/01 09:57:19;;;;;;;46.15;20.67;;;;;;;4.68;100.00;100096.06;5038495;28;20021;-74
2021/01/01 09:59:45;;;;;;;51.95;21.65;;;;;;;4.66;100.00;100092.94;5023927;28;20808;-74
2021/01/01 10:02:11;;;;;;;51.33;22.05;;;;;;;4.53;100.00;100102.78;5028171;28;20112;-74
2021/01/01 10:04:36;;;;;;;55.03;23.52;;;;;;;4.56;100.00;100096.03;5042200;28;20029;-73
2021/01/01 10:07:02;;;;;;;49.67;21.55;;;;;;;4.67;100.00;100089.16;5052431;28;20032;-73
2021/01/01 10:09:27;;;;;;;53.17;22.70;;;;;;;4.60;100.00;100086.25;5049675;28;20033;-73
2021/01/01 10:11:56;;;;;;;55.88;24.33;;;;;;;4.84;100.00;100098.91;5055468;28;20106;-73
2021/01/01 10:14:22;;;;;;;53.28;23.98;;;;;;;4.72;100.00;100091.63;5044143;28;20120;-73
2021/01/01 10:16:48;;;;;;;54.80;22.00;;;;;;;4.79;100.00;100099.09;5050328;28;20120;-74
2021/01/01 10:19:14;;;;;;;49.25;22.25;;;;;;;4.71;100.00;100099.94;5044816;28;20076;-73
2021/01/01 10:21:39;;;;;;;49.22;21.23;;;;;;;4.70;100.00;100099.19;5045974;28;20053;-73
2021/01/01 10:24:05;;;;;;;50.35;21.77;;;;;;;4.75;100.00;100106.19;5045921;28;20059;-73
2021/01/01 10:26:31;;;;;;;56.17;22.42;;;;;;;4.88;100.00;100105.88;5051339;28;20042;-73
2021/01/01 10:28:57;;;;;;;50.20;21.58;;;;;;;4.93;100.00;100097.69;5052366;28;20029;-73
2021/01/01 10:31:23;;;;;;;59.13;21.90;;;;;;;4.93;100.00;100104.91;5045688;28;20579;-73
2021/01/01 10:33:49;;;;;;;49.33;21.40;;;;;;;4.78;100.00;100103.63;5047862;28;20033;-73
2021/01/01 10:36:14;;;;;;;53.50;22.63;;;;;;;4.81;100.00;100111.00;5045945;28;20037;-73
2021/01/01 10:38:41;;;;;;;51.55;22.35;;;;;;;4.78;100.00;100103.63;5043138;28;20025;-73
2021/01/01 10:41:14;;;;;;;51.97;22.80;;;;;;;5.08;100.00;100101.59;5042997;28;20091;-73
2021/01/01 10:43:40;;;;;;;52.35;23.15;;;;;;;4.92;100.00;100096.13;5043470;28;20095;-73
2021/01/01 10:46:06;;;;;;;52.42;23.15;;;;;;;4.98;100.00;100102.00;5030926;28;20033;-74
2021/01/01 10:48:32;;;;;;;48.78;22.42;;;;;;;5.13;100.00;100098.72;5039410;28;20033;-74
2021/01/01 10:50:57;;;;;;;45.75;21.83;;;;;;;5.17;100.00;100100.38;5039914;28;20892;-74
2021/01/01 10:53:23;;;;;;;51.05;23.98;;;;;;;5.28;100.00;100101.50;5049383;28;20080;-74
2021/01/01 10:55:50;;;;;;;48.17;22.73;;;;;;;5.10;100.00;100102.81;5048490;28;20059;-74
2021/01/01 10:58:26;;;;;;;52.83;24.35;;;;;;;5.08;100.00;100102.38;5037490;28;20527;-74
2021/01/01 11:00:54;;;;;;;56.22;24.98;;;;;;;5.10;100.00;100097.50;5046904;28;20454;-74
2021/01/01 11:03:21;;;;;;;50.17;22.30;;;;;;;5.10;100.00;100094.03;5046310;28;20048;-74
2021/01/01 11:05:47;;;;;;;47.53;22.52;;;;;;;5.15;100.00;100102.59;5054400;28;20059;-74
2021/01/01 11:08:12;;;;;;;50.03;21.58;;;;;;;5.30;100.00;100101.19;5048337;28;20576;-73
2021/01/01 11:10:38;;;;;;;46.28;21.38;;;;;;;5.27;100.00;100096.50;5052789;28;20075;-74
2021/01/01 11:13:05;;;;;;;48.35;22.25;;;;;;;5.16;100.00;100093.50;5055151;28;20540;-74
2021/01/01 12:22:13;;;;;;;44.15;20.88;;;;;;;5.55;100.00;100085.94;5021676;28;20026;-74
2021/01/01 12:24:59;;;;;;;41.70;18.67;;;;;;;5.63;100.00;100083.16;5040307;28;20041;-74
2021/01/01 12:27:28;;;;;;;41.55;20.27;;;;;;;5.73;100.00;100079.25;5049992;28;20119;-74